sensor_id;sensor_type;location;lat;lon;timestamp;temperature;humidity
83098;DHT22;72971;47.204;8.582;2023-11-19T00:01:56;19.40;47.40
83098;DHT22;72971;47.204;8.582;2023-11-19T00:06:59;19.40;47.40
83098;DHT22;72971;47.204;8.582;2023-11-19T00:12:05;19.40;47.40
83098;DHT22;72971;47.204;8.582;2023-11-19T00:17:07;19.40;47.50
83098;DHT22;72971;47.204;8.582;2023-11-19T00:22:10;19.40;47.40
83098;DHT22;72971;47.204;8.582;2023-11-19T00:27:12;19.40;47.40
83098;DHT22;72971;47.204;8.582;2023-11-19T00:32:15;19.40;47.40
83098;DHT22;72971;47.204;8.582;2023-11-19T00:37:17;19.40;47.50
83098;DHT22;72971;47.204;8.582;2023-11-19T00:42:20;19.40;47.50
83098;DHT22;72971;47.204;8.582;2023-11-19T00:47:23;19.40;47.40
83098;DHT22;72971;47.204;8.582;2023-11-19T00:52:25;19.40;47.50
83098;DHT22;72971;47.204;8.582;2023-11-19T00:57:28;19.30;47.40
83098;DHT22;72971;47.204;8.582;2023-11-19T01:02:30;19.40;47.50
83098;DHT22;72971;47.204;8.582;2023-11-19T01:07:33;19.40;47.50
83098;DHT22;72971;47.204;8.582;2023-11-19T01:12:35;19.40;47.50
83098;DHT22;72971;47.204;8.582;2023-11-19T01:17:39;19.40;47.50
83098;DHT22;72971;47.204;8.582;2023-11-19T01:22:41;19.40;47.60
83098;DHT22;72971;47.204;8.582;2023-11-19T01:27:45;19.30;47.50
83098;DHT22;72971;47.204;8.582;2023-11-19T01:32:47;19.40;47.50
83098;DHT22;72971;47.204;8.582;2023-11-19T01:37:50;19.40;47.50
83098;DHT22;72971;47.204;8.582;2023-11-19T01:42:53;19.40;47.60
83098;DHT22;72971;47.204;8.582;2023-11-19T01:47:56;19.40;47.60
83098;DHT22;72971;47.204;8.582;2023-11-19T01:52:59;19.30;47.50
83098;DHT22;72971;47.204;8.582;2023-11-19T01:58:02;19.30;47.50
83098;DHT22;72971;47.204;8.582;2023-11-19T02:03:06;19.30;47.50
83098;DHT22;72971;47.204;8.582;2023-11-19T02:08:09;19.30;47.50
83098;DHT22;72971;47.204;8.582;2023-11-19T02:13:13;19.30;47.60
83098;DHT22;72971;47.204;8.582;2023-11-19T02:18:22;19.30;47.60
83098;DHT22;72971;47.204;8.582;2023-11-19T02:23:27;19.30;47.50
83098;DHT22;72971;47.204;8.582;2023-11-19T02:28:30;19.30;47.60
83098;DHT22;72971;47.204;8.582;2023-11-19T02:33:35;19.30;47.60
83098;DHT22;72971;47.204;8.582;2023-11-19T02:38:38;19.30;47.60
83098;DHT22;72971;47.204;8.582;2023-11-19T02:43:40;19.30;47.60
83098;DHT22;72971;47.204;8.582;2023-11-19T02:48:43;19.30;47.60
83098;DHT22;72971;47.204;8.582;2023-11-19T02:53:45;19.30;47.60
83098;DHT22;72971;47.204;8.582;2023-11-19T02:58:49;19.30;47.60
83098;DHT22;72971;47.204;8.582;2023-11-19T03:03:52;19.30;47.60
83098;DHT22;72971;47.204;8.582;2023-11-19T03:08:56;19.30;47.60
83098;DHT22;72971;47.204;8.582;2023-11-19T03:13:59;19.30;47.60
83098;DHT22;72971;47.204;8.582;2023-11-19T03:19:02;19.30;47.60
83098;DHT22;72971;47.204;8.582;2023-11-19T03:24:05;19.30;47.60
83098;DHT22;72971;47.204;8.582;2023-11-19T03:29:09;19.30;47.70
83098;DHT22;72971;47.204;8.582;2023-11-19T03:34:12;19.20;47.60
83098;DHT22;72971;47.204;8.582;2023-11-19T03:39:14;19.20;47.60
83098;DHT22;72971;47.204;8.582;2023-11-19T03:44:17;19.20;48.30
83098;DHT22;72971;47.204;8.582;2023-11-19T03:49:20;19.20;47.70
83098;DHT22;72971;47.204;8.582;2023-11-19T03:54:23;19.20;47.60
83098;DHT22;72971;47.204;8.582;2023-11-19T03:59:26;19.20;47.60
83098;DHT22;72971;47.204;8.582;2023-11-19T04:04:28;19.20;47.70
83098;DHT22;72971;47.204;8.582;2023-11-19T04:09:31;19.20;47.70
83098;DHT22;72971;47.204;8.582;2023-11-19T04:14:39;19.20;47.70
83098;DHT22;72971;47.204;8.582;2023-11-19T04:19:42;19.20;47.70
83098;DHT22;72971;47.204;8.582;2023-11-19T04:24:45;19.20;47.70
83098;DHT22;72971;47.204;8.582;2023-11-19T04:29:47;19.20;47.70
83098;DHT22;72971;47.204;8.582;2023-11-19T04:34:51;19.20;47.70
83098;DHT22;72971;47.204;8.582;2023-11-19T04:39:55;19.20;47.70
83098;DHT22;72971;47.204;8.582;2023-11-19T04:44:57;19.20;47.70
83098;DHT22;72971;47.204;8.582;2023-11-19T04:50:00;19.20;47.70
83098;DHT22;72971;47.204;8.582;2023-11-19T04:55:02;19.20;47.70
83098;DHT22;72971;47.204;8.582;2023-11-19T05:00:06;19.20;47.70
83098;DHT22;72971;47.204;8.582;2023-11-19T05:05:09;19.20;47.80
83098;DHT22;72971;47.204;8.582;2023-11-19T05:10:12;19.20;47.80
83098;DHT22;72971;47.204;8.582;2023-11-19T05:15:16;19.20;47.80
83098;DHT22;72971;47.204;8.582;2023-11-19T05:20:18;19.20;47.80
83098;DHT22;72971;47.204;8.582;2023-11-19T05:25:20;19.20;47.70
83098;DHT22;72971;47.204;8.582;2023-11-19T05:30:23;19.20;47.80
83098;DHT22;72971;47.204;8.582;2023-11-19T05:35:26;19.20;47.70
83098;DHT22;72971;47.204;8.582;2023-11-19T05:40:28;19.20;47.80
83098;DHT22;72971;47.204;8.582;2023-11-19T05:45:32;19.20;47.80
83098;DHT22;72971;47.204;8.582;2023-11-19T05:50:35;19.20;47.80
83098;DHT22;72971;47.204;8.582;2023-11-19T05:55:37;19.20;47.80
83098;DHT22;72971;47.204;8.582;2023-11-19T06:00:41;19.10;47.70
83098;DHT22;72971;47.204;8.582;2023-11-19T06:05:48;19.20;47.80
83098;DHT22;72971;47.204;8.582;2023-11-19T06:10:50;19.10;47.80
83098;DHT22;72971;47.204;8.582;2023-11-19T06:15:53;19.20;47.80
83098;DHT22;72971;47.204;8.582;2023-11-19T06:20:55;19.20;47.80
83098;DHT22;72971;47.204;8.582;2023-11-19T06:25:58;19.20;47.80
83098;DHT22;72971;47.204;8.582;2023-11-19T06:31:00;19.10;47.80
83098;DHT22;72971;47.204;8.582;2023-11-19T06:36:03;19.10;47.80
83098;DHT22;72971;47.204;8.582;2023-11-19T06:41:08;19.10;47.90
83098;DHT22;72971;47.204;8.582;2023-11-19T06:46:17;19.10;47.80
83098;DHT22;72971;47.204;8.582;2023-11-19T06:51:20;19.10;47.80
83098;DHT22;72971;47.204;8.582;2023-11-19T06:56:23;19.20;47.90
83098;DHT22;72971;47.204;8.582;2023-11-19T07:01:26;19.10;47.90
83098;DHT22;72971;47.204;8.582;2023-11-19T07:06:28;19.10;47.90
83098;DHT22;72971;47.204;8.582;2023-11-19T07:11:31;19.10;47.90
83098;DHT22;72971;47.204;8.582;2023-11-19T07:16:35;19.10;47.90
83098;DHT22;72971;47.204;8.582;2023-11-19T07:21:44;19.10;47.90
83098;DHT22;72971;47.204;8.582;2023-11-19T07:26:47;19.10;47.90
83098;DHT22;72971;47.204;8.582;2023-11-19T07:31:49;19.10;47.90
83098;DHT22;72971;47.204;8.582;2023-11-19T07:36:52;19.10;47.90
83098;DHT22;72971;47.204;8.582;2023-11-19T07:41:55;19.10;47.90
83098;DHT22;72971;47.204;8.582;2023-11-19T07:46:58;19.10;47.90
83098;DHT22;72971;47.204;8.582;2023-11-19T07:52:00;19.10;47.90
83098;DHT22;72971;47.204;8.582;2023-11-19T07:57:04;19.10;47.90
83098;DHT22;72971;47.204;8.582;2023-11-19T08:02:07;19.10;48.00
83098;DHT22;72971;47.204;8.582;2023-11-19T08:07:09;19.10;47.90
83098;DHT22;72971;47.204;8.582;2023-11-19T08:12:12;19.10;47.90
83098;DHT22;72971;47.204;8.582;2023-11-19T08:17:16;19.10;48.50
83098;DHT22;72971;47.204;8.582;2023-11-19T08:22:18;19.10;47.90
83098;DHT22;72971;47.204;8.582;2023-11-19T08:27:21;19.10;47.90
83098;DHT22;72971;47.204;8.582;2023-11-19T08:32:25;19.10;47.90
83098;DHT22;72971;47.204;8.582;2023-11-19T08:37:28;19.10;47.90
83098;DHT22;72971;47.204;8.582;2023-11-19T08:42:31;19.10;48.10
83098;DHT22;72971;47.204;8.582;2023-11-19T08:47:33;19.10;48.00
83098;DHT22;72971;47.204;8.582;2023-11-19T08:52:36;19.10;47.90
83098;DHT22;72971;47.204;8.582;2023-11-19T08:57:38;19.10;47.90
83098;DHT22;72971;47.204;8.582;2023-11-19T09:02:41;19.10;47.90
83098;DHT22;72971;47.204;8.582;2023-11-19T09:07:44;19.10;47.90
83098;DHT22;72971;47.204;8.582;2023-11-19T09:12:48;19.10;48.60
83098;DHT22;72971;47.204;8.582;2023-11-19T09:17:50;19.10;47.90
83098;DHT22;72971;47.204;8.582;2023-11-19T09:22:53;19.10;47.90
83098;DHT22;72971;47.204;8.582;2023-11-19T09:27:58;19.10;48.00
83098;DHT22;72971;47.204;8.582;2023-11-19T09:33:01;19.10;48.00
83098;DHT22;72971;47.204;8.582;2023-11-19T09:38:03;19.10;48.00
83098;DHT22;72971;47.204;8.582;2023-11-19T09:43:07;19.20;48.00
83098;DHT22;72971;47.204;8.582;2023-11-19T09:48:10;19.20;48.00
83098;DHT22;72971;47.204;8.582;2023-11-19T09:53:14;19.20;48.10
83098;DHT22;72971;47.204;8.582;2023-11-19T09:58:22;19.20;48.00
83098;DHT22;72971;47.204;8.582;2023-11-19T10:03:31;19.20;48.00
83098;DHT22;72971;47.204;8.582;2023-11-19T10:08:29;19.20;48.00
83098;DHT22;72971;47.204;8.582;2023-11-19T10:13:35;19.20;48.00
83098;DHT22;72971;47.204;8.582;2023-11-19T10:18:49;19.20;48.00
83098;DHT22;72971;47.204;8.582;2023-11-19T10:23:56;19.20;48.30
83098;DHT22;72971;47.204;8.582;2023-11-19T10:29:01;19.20;48.00
83098;DHT22;72971;47.204;8.582;2023-11-19T10:34:13;19.20;48.00
83098;DHT22;72971;47.204;8.582;2023-11-19T10:39:11;19.20;48.00
83098;DHT22;72971;47.204;8.582;2023-11-19T10:44:35;19.20;48.00
83098;DHT22;72971;47.204;8.582;2023-11-19T10:49:39;19.20;48.60
83098;DHT22;72971;47.204;8.582;2023-11-19T10:54:44;19.20;48.00
83098;DHT22;72971;47.204;8.582;2023-11-19T10:59:47;19.20;48.00
83098;DHT22;72971;47.204;8.582;2023-11-19T11:04:50;19.20;48.00
83098;DHT22;72971;47.204;8.582;2023-11-19T11:09:54;19.20;48.00
83098;DHT22;72971;47.204;8.582;2023-11-19T11:14:57;19.20;48.00
83098;DHT22;72971;47.204;8.582;2023-11-19T11:20:00;19.20;48.00
83098;DHT22;72971;47.204;8.582;2023-11-19T11:35:43;19.20;48.00
83098;DHT22;72971;47.204;8.582;2023-11-19T11:40:43;19.20;48.00
83098;DHT22;72971;47.204;8.582;2023-11-19T11:45:49;19.20;48.00
83098;DHT22;72971;47.204;8.582;2023-11-19T11:50:54;19.20;48.00
83098;DHT22;72971;47.204;8.582;2023-11-19T11:55:58;19.20;48.00
83098;DHT22;72971;47.204;8.582;2023-11-19T12:01:03;19.20;48.00
83098;DHT22;72971;47.204;8.582;2023-11-19T12:06:07;19.20;48.00
83098;DHT22;72971;47.204;8.582;2023-11-19T12:11:10;19.20;48.00
83098;DHT22;72971;47.204;8.582;2023-11-19T12:16:13;19.20;48.00
83098;DHT22;72971;47.204;8.582;2023-11-19T12:21:31;19.20;48.10
83098;DHT22;72971;47.204;8.582;2023-11-19T12:26:36;19.20;48.20
83098;DHT22;72971;47.204;8.582;2023-11-19T12:31:43;19.20;48.30
83098;DHT22;72971;47.204;8.582;2023-11-19T12:36:44;19.30;48.50
83098;DHT22;72971;47.204;8.582;2023-11-19T12:41:52;19.30;48.60
83098;DHT22;72971;47.204;8.582;2023-11-19T12:47:07;19.30;49.10
83098;DHT22;72971;47.204;8.582;2023-11-19T12:52:13;19.30;49.10
83098;DHT22;72971;47.204;8.582;2023-11-19T12:57:16;19.40;49.40
83098;DHT22;72971;47.204;8.582;2023-11-19T13:02:20;19.40;49.40
83098;DHT22;72971;47.204;8.582;2023-11-19T13:07:23;19.40;49.40
83098;DHT22;72971;47.204;8.582;2023-11-19T13:12:26;19.40;49.40
83098;DHT22;72971;47.204;8.582;2023-11-19T13:17:29;19.40;49.70
83098;DHT22;72971;47.204;8.582;2023-11-19T13:22:31;19.40;49.70
83098;DHT22;72971;47.204;8.582;2023-11-19T13:27:34;19.40;49.70
83098;DHT22;72971;47.204;8.582;2023-11-19T13:32:36;19.40;49.60
83098;DHT22;72971;47.204;8.582;2023-11-19T13:37:40;19.50;49.60
83098;DHT22;72971;47.204;8.582;2023-11-19T13:42:43;19.50;49.50
83098;DHT22;72971;47.204;8.582;2023-11-19T13:47:46;19.50;49.50
83098;DHT22;72971;47.204;8.582;2023-11-19T13:52:49;19.40;49.40
83098;DHT22;72971;47.204;8.582;2023-11-19T13:57:51;19.50;49.50
83098;DHT22;72971;47.204;8.582;2023-11-19T14:02:54;19.50;49.40
83098;DHT22;72971;47.204;8.582;2023-11-19T14:07:57;19.50;49.50
83098;DHT22;72971;47.204;8.582;2023-11-19T14:12:59;19.40;48.90
83098;DHT22;72971;47.204;8.582;2023-11-19T14:18:02;19.40;49.30
83098;DHT22;72971;47.204;8.582;2023-11-19T14:23:05;19.40;49.50
83098;DHT22;72971;47.204;8.582;2023-11-19T14:28:07;19.50;49.30
83098;DHT22;72971;47.204;8.582;2023-11-19T14:33:09;19.40;49.60
83098;DHT22;72971;47.204;8.582;2023-11-19T14:38:12;19.50;49.60
83098;DHT22;72971;47.204;8.582;2023-11-19T14:43:14;19.40;49.50
83098;DHT22;72971;47.204;8.582;2023-11-19T14:48:18;19.40;49.90
83098;DHT22;72971;47.204;8.582;2023-11-19T14:53:20;19.40;49.60
83098;DHT22;72971;47.204;8.582;2023-11-19T14:58:24;19.40;49.40
83098;DHT22;72971;47.204;8.582;2023-11-19T15:03:27;19.40;49.40
83098;DHT22;72971;47.204;8.582;2023-11-19T15:08:29;19.40;49.50
83098;DHT22;72971;47.204;8.582;2023-11-19T15:13:32;19.40;49.50
83098;DHT22;72971;47.204;8.582;2023-11-19T15:18:35;19.40;49.40
83098;DHT22;72971;47.204;8.582;2023-11-19T15:23:37;19.40;50.00
83098;DHT22;72971;47.204;8.582;2023-11-19T15:28:40;19.40;49.40
83098;DHT22;72971;47.204;8.582;2023-11-19T15:33:43;19.40;49.40
83098;DHT22;72971;47.204;8.582;2023-11-19T15:38:46;19.40;49.40
83098;DHT22;72971;47.204;8.582;2023-11-19T15:43:48;19.40;49.40
83098;DHT22;72971;47.204;8.582;2023-11-19T15:48:51;19.40;49.50
83098;DHT22;72971;47.204;8.582;2023-11-19T15:53:53;19.40;50.20
83098;DHT22;72971;47.204;8.582;2023-11-19T15:58:56;19.40;49.60
83098;DHT22;72971;47.204;8.582;2023-11-19T16:03:58;19.40;49.60
83098;DHT22;72971;47.204;8.582;2023-11-19T16:09:01;19.40;49.50
83098;DHT22;72971;47.204;8.582;2023-11-19T16:14:03;19.40;49.50
83098;DHT22;72971;47.204;8.582;2023-11-19T16:19:06;19.40;49.50
83098;DHT22;72971;47.204;8.582;2023-11-19T16:24:09;19.40;49.50
83098;DHT22;72971;47.204;8.582;2023-11-19T16:29:12;19.40;49.50
83098;DHT22;72971;47.204;8.582;2023-11-19T16:34:14;19.40;49.40
83098;DHT22;72971;47.204;8.582;2023-11-19T16:39:17;19.40;49.40
83098;DHT22;72971;47.204;8.582;2023-11-19T16:44:19;19.40;49.40
83098;DHT22;72971;47.204;8.582;2023-11-19T16:49:22;19.40;49.40
83098;DHT22;72971;47.204;8.582;2023-11-19T16:54:24;19.40;49.40
83098;DHT22;72971;47.204;8.582;2023-11-19T16:59:27;19.50;49.50
83098;DHT22;72971;47.204;8.582;2023-11-19T17:04:29;19.50;49.50
83098;DHT22;72971;47.204;8.582;2023-11-19T17:09:33;19.40;49.40
83098;DHT22;72971;47.204;8.582;2023-11-19T17:14:35;19.40;49.30
83098;DHT22;72971;47.204;8.582;2023-11-19T17:19:38;19.40;49.30
83098;DHT22;72971;47.204;8.582;2023-11-19T17:24:42;19.50;49.50
83098;DHT22;72971;47.204;8.582;2023-11-19T17:29:45;19.50;49.30
83098;DHT22;72971;47.204;8.582;2023-11-19T17:34:47;19.40;49.20
83098;DHT22;72971;47.204;8.582;2023-11-19T17:39:51;19.40;49.30
83098;DHT22;72971;47.204;8.582;2023-11-19T17:44:56;19.40;49.30
83098;DHT22;72971;47.204;8.582;2023-11-19T17:50:00;19.40;49.20
83098;DHT22;72971;47.204;8.582;2023-11-19T17:55:05;19.40;49.30
83098;DHT22;72971;47.204;8.582;2023-11-19T18:00:10;19.40;49.30
83098;DHT22;72971;47.204;8.582;2023-11-19T18:05:15;19.40;49.20
83098;DHT22;72971;47.204;8.582;2023-11-19T18:10:17;19.40;49.20
83098;DHT22;72971;47.204;8.582;2023-11-19T18:15:20;19.40;49.20
83098;DHT22;72971;47.204;8.582;2023-11-19T18:20:22;19.40;49.20
83098;DHT22;72971;47.204;8.582;2023-11-19T18:25:25;19.40;49.20
83098;DHT22;72971;47.204;8.582;2023-11-19T18:30:28;19.40;49.20
83098;DHT22;72971;47.204;8.582;2023-11-19T18:35:30;19.40;49.20
83098;DHT22;72971;47.204;8.582;2023-11-19T18:40:33;19.40;49.20
83098;DHT22;72971;47.204;8.582;2023-11-19T18:45:36;19.40;49.20
83098;DHT22;72971;47.204;8.582;2023-11-19T18:50:38;19.40;49.10
83098;DHT22;72971;47.204;8.582;2023-11-19T18:55:41;19.40;49.10
83098;DHT22;72971;47.204;8.582;2023-11-19T19:00:43;19.40;49.60
83098;DHT22;72971;47.204;8.582;2023-11-19T19:05:46;19.40;49.20
83098;DHT22;72971;47.204;8.582;2023-11-19T19:10:48;19.40;49.10
83098;DHT22;72971;47.204;8.582;2023-11-19T19:15:51;19.40;49.10
83098;DHT22;72971;47.204;8.582;2023-11-19T19:20:54;19.40;49.10
83098;DHT22;72971;47.204;8.582;2023-11-19T19:25:56;19.40;49.10
83098;DHT22;72971;47.204;8.582;2023-11-19T19:30:59;19.40;49.10
83098;DHT22;72971;47.204;8.582;2023-11-19T19:36:01;19.40;49.10
83098;DHT22;72971;47.204;8.582;2023-11-19T19:41:05;19.40;49.10
83098;DHT22;72971;47.204;8.582;2023-11-19T19:46:07;19.40;49.10
83098;DHT22;72971;47.204;8.582;2023-11-19T19:51:12;19.40;49.10
83098;DHT22;72971;47.204;8.582;2023-11-19T19:56:16;19.40;49.10
83098;DHT22;72971;47.204;8.582;2023-11-19T20:01:19;19.40;49.10
83098;DHT22;72971;47.204;8.582;2023-11-19T20:06:22;19.40;49.20
83098;DHT22;72971;47.204;8.582;2023-11-19T20:11:25;19.40;49.10
83098;DHT22;72971;47.204;8.582;2023-11-19T20:16:30;19.40;49.10
83098;DHT22;72971;47.204;8.582;2023-11-19T20:21:32;19.40;49.10
83098;DHT22;72971;47.204;8.582;2023-11-19T20:26:36;19.40;49.10
83098;DHT22;72971;47.204;8.582;2023-11-19T20:31:41;19.40;49.10
83098;DHT22;72971;47.204;8.582;2023-11-19T20:36:43;19.40;49.10
83098;DHT22;72971;47.204;8.582;2023-11-19T20:41:46;19.40;49.10
83098;DHT22;72971;47.204;8.582;2023-11-19T20:46:49;19.40;49.10
83098;DHT22;72971;47.204;8.582;2023-11-19T20:51:52;19.40;49.10
83098;DHT22;72971;47.204;8.582;2023-11-19T20:56:54;19.40;49.10
83098;DHT22;72971;47.204;8.582;2023-11-19T21:01:57;19.40;49.00
83098;DHT22;72971;47.204;8.582;2023-11-19T21:06:59;19.40;49.10
83098;DHT22;72971;47.204;8.582;2023-11-19T21:12:02;19.40;49.10
83098;DHT22;72971;47.204;8.582;2023-11-19T21:17:05;19.40;49.10
83098;DHT22;72971;47.204;8.582;2023-11-19T21:22:08;19.40;49.10
83098;DHT22;72971;47.204;8.582;2023-11-19T21:27:11;19.40;49.00
83098;DHT22;72971;47.204;8.582;2023-11-19T21:32:14;19.40;49.00
83098;DHT22;72971;47.204;8.582;2023-11-19T21:37:17;19.40;49.10
83098;DHT22;72971;47.204;8.582;2023-11-19T21:42:20;19.40;49.70
83098;DHT22;72971;47.204;8.582;2023-11-19T21:47:22;19.40;49.00
83098;DHT22;72971;47.204;8.582;2023-11-19T21:52:25;19.40;49.00
83098;DHT22;72971;47.204;8.582;2023-11-19T21:57:27;19.40;49.00
83098;DHT22;72971;47.204;8.582;2023-11-19T22:02:30;19.40;49.00
83098;DHT22;72971;47.204;8.582;2023-11-19T22:07:32;19.40;49.00
83098;DHT22;72971;47.204;8.582;2023-11-19T22:12:35;19.40;49.00
83098;DHT22;72971;47.204;8.582;2023-11-19T22:17:38;19.40;49.00
83098;DHT22;72971;47.204;8.582;2023-11-19T22:22:40;19.40;49.00
83098;DHT22;72971;47.204;8.582;2023-11-19T22:27:44;19.40;49.00
83098;DHT22;72971;47.204;8.582;2023-11-19T22:32:47;19.30;49.60
83098;DHT22;72971;47.204;8.582;2023-11-19T22:37:49;19.40;49.00
83098;DHT22;72971;47.204;8.582;2023-11-19T22:42:52;19.30;49.00
83098;DHT22;72971;47.204;8.582;2023-11-19T22:47:54;19.30;48.90
83098;DHT22;72971;47.204;8.582;2023-11-19T22:52:57;19.30;49.60
83098;DHT22;72971;47.204;8.582;2023-11-19T22:58:01;19.30;49.00
83098;DHT22;72971;47.204;8.582;2023-11-19T23:03:04;19.30;48.90
83098;DHT22;72971;47.204;8.582;2023-11-19T23:08:08;19.30;49.00
83098;DHT22;72971;47.204;8.582;2023-11-19T23:13:12;19.30;48.90
83098;DHT22;72971;47.204;8.582;2023-11-19T23:18:15;19.30;49.00
83098;DHT22;72971;47.204;8.582;2023-11-19T23:23:18;19.30;49.00
83098;DHT22;72971;47.204;8.582;2023-11-19T23:28:21;19.30;49.00
83098;DHT22;72971;47.204;8.582;2023-11-19T23:33:24;19.30;49.00
83098;DHT22;72971;47.204;8.582;2023-11-19T23:38:27;19.30;49.00
83098;DHT22;72971;47.204;8.582;2023-11-19T23:43:29;19.30;49.00
83098;DHT22;72971;47.204;8.582;2023-11-19T23:48:32;19.20;49.00
83098;DHT22;72971;47.204;8.582;2023-11-19T23:53:35;19.30;49.00
83098;DHT22;72971;47.204;8.582;2023-11-19T23:58:37;19.30;49.00
